Austin (LCRA Redbud)'s Hourly Summary for Thursday, April 20, 2017
Hour Temp
(f)
RH
(%)
Solar Rad.
(MJ/m2)
Rainfall
(in)
Wind
(mph)
4/20/2017 12:00 AM 72 80 0 0 1.68
4/20/2017 1:00 AM 71 82 0 0 2.26
4/20/2017 2:00 AM 71 85 0 0 3.11
4/20/2017 3:00 AM 71 85 0 0 2.23
4/20/2017 4:00 AM 71 85 0 0 2.05
4/20/2017 5:00 AM 71 85 0 0 1.71
4/20/2017 6:00 AM 70 88 0 0 1.17
4/20/2017 7:00 AM 70 90 0 0 1.11
4/20/2017 8:00 AM 70 89 0.08 0 1.78
4/20/2017 9:00 AM 71 87 0.14 0 1.57
4/20/2017 10:00 AM 73 82 0.38 0 2.16
4/20/2017 11:00 AM 74 78 0.5 0 2.18
4/20/2017 12:00 PM 76 69 1.11 0 2.19
4/20/2017 1:00 PM 80 60 2.54 0 2.49
4/20/2017 2:00 PM 81 57 2.24 0 2.71
4/20/2017 3:00 PM 84 52 2.44 0 3.6
4/20/2017 4:00 PM 84 50 2.17 0 2.76
4/20/2017 5:00 PM 85 49 1.84 0 3.19
4/20/2017 6:00 PM 85 49 1.18 0 3.02
4/20/2017 7:00 PM 83 54 0.65 0 2.61
4/20/2017 8:00 PM 81 56 0.19 0 2.84
4/20/2017 9:00 PM 79 58 0 0 1.29
4/20/2017 10:00 PM 77 66 0 0 1.71
4/20/2017 11:00 PM 76 70 0 0 2.09
Data Summary 76 71 15.46 0.00 2.23